Fredonia, Arizona
Current Conditions -  °F | °C
As of 5:55 PM on Saturday 25 Oct 2014 (Local Time) from KAZC Reporting Station
Clear Clear  
Wind Chill: 71°   Ceiling: Unl
Heat Index: 71°   Visibility: 10mi
Dew Point: 39°   Wind: 6mph
Humidity: 31%   Direction: 220°SW
Pressure: 30.12"   Gusts: NA
Location:  36.95°N, 112.53°W
Report Text: KAZC 260055Z AUTO 22005KT 10SM CLR 22/04 A3012 RMK AO2 T02160037
Loading
Personal Weather Stations






























Interactive Weather Map
Tropical Storm Tracking
New forecast layout! Learn more

10-Day Weather Forecast

Advertisements
Track Severe Weather on mobile